Decoded Metar for LELL (SABADELL in SPAIN) (IATA:QSA) | Meteo·Mobile Aviation Weather
aviador You're here:

LELL Decoded Metar

SABADELL in SPAIN
Report Time2019-02-20 20:00:00
UTC Time2019-02-20 20:06:39
Flight Rules vfr VFR
WindVRB at 02 kt
Visibility9999 m
Phenomena:N/A
Clouds:N/A
Expected CloudBase > 1,600 ft AGL from Temp-Dew spread
CeilingNone
Temp09°C (ISA -5)
Dew Point05°C (76% RH)
AAT7.2°C
QNH1026 hPa
Density Alt-436 ft
Elevation485 ft
Report Wrong Elevation
Raw Report
METAR LELL 202000Z AUTO VRB02KT CAVOK 09/05 Q1026=

Extra information for LELL:More info

Metar Taf Metar & Taf Last 4 Metars F.Rules Stats Wind Profile Meteogram Temp Stats Airport Information Weather charts Add Link Nearby VenuesMetar ALERT Operation Metar Decoded Social comments

Aeroclub BS Web Page